Time;durP1;ratioP1;P1;durP2;ratioP2;P2;SDS_P1;SDS_P2;PMS_P1;PMS_P2;Temp;Humidity;BMP_temperature;BMP_pressure;BME280_temperature;BME280_humidity;BME280_pressure;Samples;Min_cycle;Max_cycle;Signal;HPM_P1;HPM_P2
2023/05/16 00:00:33;;;;;;;;;;;10.40;99.90;;;;;;5110525;28;19978;-53
2023/05/16 00:03:01;;;;;;;;;;;10.40;99.90;;;;;;5113798;28;19969;-53
2023/05/16 00:05:28;;;;;;;;;;;10.40;99.90;;;;;;5114413;28;19920;-57
2023/05/16 00:07:55;;;;;;;;;;;10.40;99.90;;;;;;5106685;28;20272;-54
2023/05/16 00:10:22;;;;;;;;;;;10.40;99.90;;;;;;5114149;28;19923;-56
2023/05/16 00:12:51;;;;;;;;;;;10.30;99.90;;;;;;5113894;28;19940;-57
2023/05/16 00:15:19;;;;;;;;;;;10.30;99.90;;;;;;5106174;28;19919;-57
2023/05/16 00:17:46;;;;;;;;;;;10.30;99.90;;;;;;5113485;28;19920;-54
2023/05/16 00:20:13;;;;;;;;;;;10.30;99.90;;;;;;5114074;28;19920;-54
2023/05/16 00:22:40;;;;;;;;;;;10.30;99.90;;;;;;5105557;28;19927;-56
2023/05/16 00:25:08;;;;;;;;;;;10.20;99.90;;;;;;5113793;28;20260;-57
2023/05/16 00:27:35;;;;;;;;;;;10.20;99.90;;;;;;5114329;28;19927;-57
2023/05/16 00:30:02;;;;;;;;;;;10.20;99.90;;;;;;5095861;28;19920;-54
2023/05/16 00:32:29;;;;;;;;;;;10.20;99.90;;;;;;5113368;28;19920;-57
2023/05/16 00:34:56;;;;;;;;;;;10.20;99.90;;;;;;5113050;28;19930;-56
2023/05/16 00:37:23;;;;;;;;;;;10.20;99.90;;;;;;5113907;28;19927;-56
2023/05/16 00:39:49;;;;;;;;;;;10.20;99.90;;;;;;5095432;28;20383;-56
2023/05/16 00:42:18;;;;;;;;;;;10.20;99.90;;;;;;5113041;28;19920;-55
2023/05/16 00:44:44;;;;;;;;;;;10.20;99.90;;;;;;5103713;28;19923;-56
2023/05/16 00:47:11;;;;;;;;;;;10.20;99.90;;;;;;5083615;28;19920;-56
2023/05/16 00:49:38;;;;;;;;;;;10.20;99.90;;;;;;5090276;28;19919;-58
2023/05/16 00:52:05;;;;;;;;;;;10.30;99.90;;;;;;5113766;28;20341;-58
2023/05/16 00:54:32;;;;;;;;;;;10.30;99.90;;;;;;5111641;28;20002;-57
2023/05/16 00:56:59;;;;;;;;;;;10.30;99.90;;;;;;5111875;28;19928;-55
2023/05/16 00:59:26;;;;;;;;;;;10.20;99.90;;;;;;5087684;28;19973;-58
2023/05/16 01:01:53;;;;;;;;;;;10.30;99.90;;;;;;5079162;28;19969;-56
2023/05/16 01:04:21;;;;;;;;;;;10.20;99.90;;;;;;5111935;28;20318;-55
2023/05/16 01:06:47;;;;;;;;;;;10.20;99.90;;;;;;5112814;28;20524;-57
2023/05/16 01:09:14;;;;;;;;;;;10.30;99.90;;;;;;5111805;28;19923;-56
2023/05/16 01:11:59;;;;;;;;;;;10.20;99.90;;;;;;5111747;28;19923;-53
2023/05/16 01:14:35;;;;;;;;;;;10.30;99.90;;;;;;5095169;28;19924;-58
2023/05/16 01:17:02;;;;;;;;;;;10.30;99.90;;;;;;5106020;28;19920;-55
2023/05/16 01:19:29;;;;;;;;;;;10.30;99.90;;;;;;5112951;28;19920;-57
2023/05/16 01:22:15;;;;;;;;;;;10.30;99.90;;;;;;5111602;28;19919;-57
2023/05/16 01:25:00;;;;;;;;;;;10.30;99.90;;;;;;5086782;28;20433;-54
2023/05/16 01:27:28;;;;;;;;;;;10.30;99.90;;;;;;5095023;28;19919;-56
2023/05/16 01:29:56;;;;;;;;;;;10.30;99.90;;;;;;5100849;28;19927;-57
2023/05/16 01:32:23;;;;;;;;;;;10.20;99.90;;;;;;5096821;28;19923;-57
2023/05/16 01:34:50;;;;;;;;;;;10.30;99.90;;;;;;5093825;28;19976;-56
2023/05/16 01:37:20;;;;;;;;;;;10.30;99.90;;;;;;5108881;28;19981;-57
2023/05/16 01:39:51;;;;;;;;;;;10.30;99.90;;;;;;5103184;28;19920;-55
2023/05/16 01:42:20;;;;;;;;;;;10.20;99.90;;;;;;5112043;28;19968;-58
2023/05/16 01:45:11;;;;;;;;;;;10.20;99.90;;;;;;5093969;28;20405;-57
2023/05/16 01:47:40;;;;;;;;;;;10.20;99.90;;;;;;5089914;28;20375;-56
2023/05/16 01:50:14;;;;;;;;;;;10.20;99.90;;;;;;5094552;28;19920;-58
2023/05/16 01:52:44;;;;;;;;;;;10.20;99.90;;;;;;5093844;28;19924;-55
2023/05/16 01:55:14;;;;;;;;;;;10.20;99.90;;;;;;5086047;28;19933;-56
2023/05/16 01:57:41;;;;;;;;;;;10.10;99.90;;;;;;5092724;28;19920;-53
2023/05/16 02:00:08;;;;;;;;;;;10.10;99.90;;;;;;5094305;28;19949;-56
2023/05/16 02:02:39;;;;;;;;;;;10.10;99.90;;;;;;5110085;28;19926;-57
2023/05/16 02:05:07;;;;;;;;;;;10.10;99.90;;;;;;5097454;28;20045;-53
2023/05/16 02:07:35;;;;;;;;;;;10.10;99.90;;;;;;5093916;28;19923;-57
2023/05/16 02:10:02;;;;;;;;;;;10.10;99.90;;;;;;5093582;28;20371;-57
2023/05/16 02:12:28;;;;;;;;;;;10.10;99.90;;;;;;5093859;28;19928;-55
2023/05/16 02:14:55;;;;;;;;;;;10.10;99.90;;;;;;5093099;28;19969;-56
2023/05/16 02:17:21;;;;;;;;;;;10.10;99.90;;;;;;5094216;28;19950;-57
2023/05/16 02:19:48;;;;;;;;;;;10.00;99.90;;;;;;5112567;28;20018;-55
2023/05/16 02:22:15;;;;;;;;;;;10.00;99.90;;;;;;5111113;28;19934;-55
2023/05/16 02:24:42;;;;;;;;;;;9.90;99.90;;;;;;5112489;28;19965;-54
2023/05/16 02:27:08;;;;;;;;;;;9.90;99.90;;;;;;5093268;28;20324;-57
2023/05/16 02:29:35;;;;;;;;;;;10.00;99.90;;;;;;5094025;28;19924;-57
2023/05/16 02:32:01;;;;;;;;;;;9.90;99.90;;;;;;5091485;28;19931;-55
2023/05/16 02:34:28;;;;;;;;;;;9.90;99.90;;;;;;5096208;28;19973;-54
2023/05/16 02:36:55;;;;;;;;;;;9.90;99.90;;;;;;5094329;28;20441;-55
2023/05/16 02:39:21;;;;;;;;;;;10.00;99.90;;;;;;5090667;28;20027;-58
2023/05/16 02:41:50;;;;;;;;;;;10.00;99.90;;;;;;5110937;28;19927;-56
2023/05/16 02:44:16;;;;;;;;;;;10.00;99.90;;;;;;5091672;28;20318;-57
2023/05/16 02:46:43;;;;;;;;;;;10.10;99.90;;;;;;5107423;28;19973;-56
2023/05/16 02:49:09;;;;;;;;;;;10.10;99.90;;;;;;5101666;28;20380;-54
2023/05/16 02:51:37;;;;;;;;;;;10.10;99.90;;;;;;5113105;28;20374;-56
2023/05/16 02:54:04;;;;;;;;;;;10.10;99.90;;;;;;5097361;28;19919;-57
2023/05/16 02:56:31;;;;;;;;;;;10.10;99.90;;;;;;5115451;28;19943;-53
2023/05/16 02:58:57;;;;;;;;;;;10.10;99.90;;;;;;5084806;28;19942;-55
2023/05/16 03:01:24;;;;;;;;;;;10.10;99.90;;;;;;5102377;28;20215;-56
2023/05/16 03:03:51;;;;;;;;;;;10.10;99.90;;;;;;5114615;28;19973;-57
2023/05/16 03:06:18;;;;;;;;;;;10.10;99.90;;;;;;5097777;28;20360;-58
2023/05/16 03:08:44;;;;;;;;;;;10.10;99.90;;;;;;5096773;28;20325;-57
2023/05/16 03:11:11;;;;;;;;;;;10.10;99.90;;;;;;5097433;28;20437;-55
2023/05/16 03:13:39;;;;;;;;;;;10.00;99.90;;;;;;5106059;28;19924;-57
2023/05/16 03:16:06;;;;;;;;;;;10.00;99.90;;;;;;5097384;28;19927;-58
2023/05/16 03:18:34;;;;;;;;;;;10.00;99.90;;;;;;5107158;28;19959;-54
2023/05/16 03:21:01;;;;;;;;;;;9.90;99.90;;;;;;5091175;28;19920;-55
2023/05/16 03:23:28;;;;;;;;;;;9.90;99.90;;;;;;5097494;28;19973;-55
2023/05/16 03:25:55;;;;;;;;;;;9.90;99.90;;;;;;5105796;28;19959;-57
2023/05/16 03:28:21;;;;;;;;;;;9.90;99.90;;;;;;5112950;28;19919;-57
2023/05/16 03:30:48;;;;;;;;;;;9.90;99.90;;;;;;5110023;28;20273;-54
2023/05/16 03:33:15;;;;;;;;;;;9.90;99.90;;;;;;5114813;28;19959;-57
2023/05/16 03:35:42;;;;;;;;;;;9.90;99.90;;;;;;5110115;28;19920;-57
2023/05/16 03:38:08;;;;;;;;;;;9.90;99.90;;;;;;5113801;28;19954;-54
2023/05/16 03:40:35;;;;;;;;;;;9.90;99.90;;;;;;5115040;28;19973;-57
2023/05/16 03:43:02;;;;;;;;;;;9.90;99.90;;;;;;5095875;28;20376;-57
2023/05/16 03:45:30;;;;;;;;;;;9.90;99.90;;;;;;5110990;28;19919;-57
2023/05/16 03:47:56;;;;;;;;;;;9.90;99.90;;;;;;5106209;28;19926;-55
2023/05/16 03:50:24;;;;;;;;;;;9.90;99.90;;;;;;5081152;28;19931;-57
2023/05/16 03:52:52;;;;;;;;;;;9.90;99.90;;;;;;5112555;28;20279;-54
2023/05/16 03:55:19;;;;;;;;;;;9.90;99.90;;;;;;5114338;28;19919;-57
2023/05/16 03:57:46;;;;;;;;;;;9.90;99.90;;;;;;5111371;28;19920;-54
2023/05/16 04:00:13;;;;;;;;;;;9.90;99.90;;;;;;5113050;28;19977;-53
2023/05/16 04:02:40;;;;;;;;;;;10.00;99.90;;;;;;5110058;28;19919;-57
2023/05/16 04:05:08;;;;;;;;;;;10.00;99.90;;;;;;5114960;28;20331;-56
2023/05/16 04:07:37;;;;;;;;;;;10.00;99.90;;;;;;5114347;28;19947;-58
2023/05/16 04:10:04;;;;;;;;;;;10.00;99.90;;;;;;5114579;28;19920;-54
2023/05/16 04:12:31;;;;;;;;;;;9.90;99.90;;;;;;5114032;27;19959;-55
2023/05/16 04:14:58;;;;;;;;;;;10.00;99.90;;;;;;5110770;28;19920;-55
2023/05/16 04:17:24;;;;;;;;;;;10.00;99.90;;;;;;5109031;28;19931;-55
2023/05/16 04:19:51;;;;;;;;;;;10.40;99.90;;;;;;5113989;28;19919;-58
2023/05/16 04:22:19;;;;;;;;;;;10.00;99.90;;;;;;5110826;28;19965;-56
2023/05/16 04:24:46;;;;;;;;;;;10.00;99.90;;;;;;5114267;28;20432;-57
2023/05/16 04:27:12;;;;;;;;;;;10.00;99.90;;;;;;5114688;28;19963;-58
2023/05/16 04:29:39;;;;;;;;;;;10.00;99.90;;;;;;5113500;28;19957;-58
2023/05/16 04:32:06;;;;;;;;;;;10.10;99.90;;;;;;5111417;28;19920;-57
2023/05/16 04:34:36;;;;;;;;;;;10.10;99.90;;;;;;5106375;28;19923;-58
2023/05/16 04:37:06;;;;;;;;;;;10.10;99.90;;;;;;5103662;28;19927;-54
2023/05/16 04:39:33;;;;;;;;;;;10.20;99.90;;;;;;5108652;28;19963;-58
2023/05/16 04:42:01;;;;;;;;;;;10.20;99.90;;;;;;5085700;28;20513;-54
2023/05/16 04:44:27;;;;;;;;;;;10.20;99.90;;;;;;5104312;28;19924;-57
2023/05/16 04:46:54;;;;;;;;;;;10.10;99.90;;;;;;5106934;28;20018;-55
2023/05/16 04:49:21;;;;;;;;;;;10.10;99.90;;;;;;5103395;28;19946;-56
2023/05/16 04:51:48;;;;;;;;;;;10.20;99.90;;;;;;5102295;28;19920;-57
2023/05/16 04:54:14;;;;;;;;;;;10.20;99.90;;;;;;5108914;28;20212;-57
2023/05/16 04:56:41;;;;;;;;;;;10.20;99.90;;;;;;5101817;28;19973;-56
2023/05/16 04:59:08;;;;;;;;;;;10.20;99.90;;;;;;5110299;28;19934;-58
2023/05/16 05:01:35;;;;;;;;;;;10.20;99.90;;;;;;5104816;28;19935;-55
2023/05/16 05:04:02;;;;;;;;;;;10.30;99.90;;;;;;5106079;28;20291;-54
2023/05/16 05:06:28;;;;;;;;;;;10.30;99.90;;;;;;5084003;28;19924;-55
2023/05/16 05:08:55;;;;;;;;;;;10.20;99.90;;;;;;5104703;28;19931;-57
2023/05/16 05:11:22;;;;;;;;;;;10.30;99.90;;;;;;5102745;28;20372;-57
2023/05/16 05:13:48;;;;;;;;;;;10.40;99.90;;;;;;5107121;28;20338;-57
2023/05/16 05:16:18;;;;;;;;;;;10.40;99.90;;;;;;5105385;28;19923;-57
2023/05/16 05:18:45;;;;;;;;;;;10.50;99.90;;;;;;5102368;28;19923;-54
2023/05/16 05:21:12;;;;;;;;;;;10.60;99.90;;;;;;5107101;28;20360;-56
2023/05/16 05:23:39;;;;;;;;;;;10.60;99.90;;;;;;5106389;28;20353;-54
2023/05/16 05:26:05;;;;;;;;;;;10.70;99.90;;;;;;5105501;28;19973;-57
2023/05/16 05:28:32;;;;;;;;;;;10.70;99.90;;;;;;5109933;28;20015;-53
2023/05/16 05:30:59;;;;;;;;;;;10.70;99.90;;;;;;5105495;28;19924;-58
2023/05/16 05:33:27;;;;;;;;;;;10.80;99.90;;;;;;5100419;28;19969;-57
2023/05/16 05:35:54;;;;;;;;;;;10.90;99.90;;;;;;5100570;28;19923;-55
2023/05/16 05:38:21;;;;;;;;;;;10.90;99.90;;;;;;5112148;28;19920;-54
2023/05/16 05:40:48;;;;;;;;;;;10.90;99.90;;;;;;5110336;28;19963;-56
2023/05/16 05:43:15;;;;;;;;;;;10.90;99.90;;;;;;5096643;28;19938;-55
2023/05/16 05:45:42;;;;;;;;;;;11.20;99.90;;;;;;5105812;28;19920;-58
2023/05/16 05:48:09;;;;;;;;;;;11.10;99.90;;;;;;5112281;28;20002;-57
2023/05/16 05:50:36;;;;;;;;;;;11.00;99.90;;;;;;5104056;28;19968;-56
2023/05/16 05:53:03;;;;;;;;;;;11.00;99.90;;;;;;5101299;28;20379;-54
2023/05/16 05:55:30;;;;;;;;;;;11.00;99.90;;;;;;5111854;28;19928;-56
2023/05/16 05:57:56;;;;;;;;;;;11.00;99.90;;;;;;5103343;28;20004;-54
2023/05/16 06:00:23;;;;;;;;;;;11.00;99.90;;;;;;5112677;28;20413;-57
2023/05/16 06:02:50;;;;;;;;;;;11.00;99.90;;;;;;5108624;28;19959;-57
2023/05/16 06:05:17;;;;;;;;;;;11.00;99.90;;;;;;5098475;28;19920;-58
2023/05/16 06:07:44;;;;;;;;;;;11.10;99.90;;;;;;5104171;28;19927;-55
2023/05/16 06:10:10;;;;;;;;;;;11.10;99.90;;;;;;5106439;28;20028;-57
2023/05/16 06:12:37;;;;;;;;;;;11.10;99.90;;;;;;5104509;28;19962;-56
2023/05/16 06:15:04;;;;;;;;;;;11.00;99.90;;;;;;5109602;28;20186;-54
2023/05/16 06:17:31;;;;;;;;;;;11.00;99.90;;;;;;5095469;28;19956;-56
2023/05/16 06:19:57;;;;;;;;;;;11.00;99.90;;;;;;5091253;28;19937;-54
2023/05/16 06:22:24;;;;;;;;;;;11.00;99.90;;;;;;5104296;28;19969;-57
2023/05/16 06:24:51;;;;;;;;;;;11.10;99.90;;;;;;5099360;28;19920;-55
2023/05/16 06:27:17;;;;;;;;;;;11.10;99.90;;;;;;5111195;28;19931;-53
2023/05/16 06:29:44;;;;;;;;;;;11.10;99.90;;;;;;5103374;28;19924;-53
2023/05/16 06:32:11;;;;;;;;;;;11.10;99.90;;;;;;5107720;28;20022;-53
2023/05/16 06:34:39;;;;;;;;;;;11.20;99.90;;;;;;5104343;28;19920;-56
2023/05/16 06:37:05;;;;;;;;;;;11.20;99.90;;;;;;5109102;28;19949;-54
2023/05/16 06:39:32;;;;;;;;;;;11.20;99.90;;;;;;5097940;28;19924;-57
2023/05/16 06:41:59;;;;;;;;;;;11.20;99.90;;;;;;5110088;28;19923;-53
2023/05/16 06:44:30;;;;;;;;;;;11.30;99.90;;;;;;5087337;28;20026;-55
2023/05/16 06:46:57;;;;;;;;;;;11.30;99.90;;;;;;5105611;28;19926;-54
2023/05/16 06:49:24;;;;;;;;;;;11.40;99.90;;;;;;5110406;28;19920;-54
2023/05/16 06:51:51;;;;;;;;;;;11.40;99.90;;;;;;5111197;28;19920;-56
2023/05/16 06:54:18;;;;;;;;;;;11.60;99.90;;;;;;5107056;28;20305;-55
2023/05/16 06:56:44;;;;;;;;;;;11.70;99.90;;;;;;5099163;28;20371;-54
2023/05/16 06:59:11;;;;;;;;;;;11.80;99.90;;;;;;5094839;28;20312;-55
2023/05/16 07:01:38;;;;;;;;;;;11.90;99.90;;;;;;5097738;28;19920;-57
2023/05/16 07:04:04;;;;;;;;;;;11.90;99.90;;;;;;5100311;28;19923;-54
2023/05/16 07:06:32;;;;;;;;;;;12.00;99.90;;;;;;5104367;28;19951;-53
2023/05/16 07:08:58;;;;;;;;;;;12.00;99.90;;;;;;5110136;28;19926;-56
2023/05/16 07:11:25;;;;;;;;;;;12.10;99.90;;;;;;5099088;28;19920;-55
2023/05/16 07:13:52;;;;;;;;;;;12.30;99.90;;;;;;5099696;28;19926;-56
2023/05/16 07:16:19;;;;;;;;;;;12.30;99.90;;;;;;5102641;28;20010;-61
2023/05/16 07:18:45;;;;;;;;;;;12.40;99.90;;;;;;5113789;28;19973;-62
2023/05/16 07:21:12;;;;;;;;;;;12.40;99.90;;;;;;5106188;28;19927;-61
2023/05/16 07:23:39;;;;;;;;;;;12.30;99.90;;;;;;5106269;28;19920;-61
2023/05/16 07:26:05;;;;;;;;;;;12.20;99.90;;;;;;5109973;28;20269;-61
2023/05/16 07:28:32;;;;;;;;;;;12.20;99.90;;;;;;5115276;28;19942;-54
2023/05/16 07:30:59;;;;;;;;;;;12.20;99.90;;;;;;5108338;28;19939;-53
2023/05/16 07:33:26;;;;;;;;;;;12.20;99.90;;;;;;5114750;28;20395;-56
2023/05/16 07:35:53;;;;;;;;;;;12.20;99.90;;;;;;5113048;28;20272;-53
2023/05/16 07:38:33;;;;;;;;;;;12.20;99.90;;;;;;5108459;28;19957;-55
2023/05/16 07:41:00;;;;;;;;;;;12.20;99.90;;;;;;5104612;28;19920;-57
2023/05/16 07:43:27;;;;;;;;;;;12.20;99.90;;;;;;5093628;28;20010;-56
2023/05/16 07:45:55;;;;;;;;;;;12.20;99.90;;;;;;5093991;28;20380;-54
2023/05/16 07:48:22;;;;;;;;;;;12.30;99.90;;;;;;5105804;28;19923;-55
2023/05/16 07:50:49;;;;;;;;;;;12.40;99.90;;;;;;5104613;28;19920;-56
2023/05/16 07:53:16;;;;;;;;;;;12.40;99.90;;;;;;5108590;28;20375;-58
2023/05/16 07:55:42;;;;;;;;;;;12.50;99.90;;;;;;5114273;28;20336;-57
2023/05/16 07:58:09;;;;;;;;;;;12.40;99.90;;;;;;5102189;28;19923;-57
2023/05/16 08:00:36;;;;;;;;;;;12.40;99.90;;;;;;5101965;28;19954;-58
2023/05/16 08:03:03;;;;;;;;;;;12.40;99.90;;;;;;5093402;28;19920;-53
2023/05/16 08:05:30;;;;;;;;;;;12.40;99.90;;;;;;5102549;28;19973;-56
2023/05/16 08:07:57;;;;;;;;;;;12.40;99.90;;;;;;5110688;28;19949;-55
2023/05/16 08:10:24;;;;;;;;;;;12.40;99.90;;;;;;5110964;28;19955;-58
2023/05/16 08:12:52;;;;;;;;;;;12.40;99.90;;;;;;5113537;28;19924;-54
2023/05/16 08:15:20;;;;;;;;;;;12.40;99.90;;;;;;5105715;28;19927;-58
2023/05/16 08:17:47;;;;;;;;;;;12.50;99.90;;;;;;5104781;28;19964;-56
2023/05/16 08:20:13;;;;;;;;;;;12.50;99.90;;;;;;5093894;28;19927;-58
2023/05/16 08:22:40;;;;;;;;;;;12.60;99.90;;;;;;5101360;28;20299;-58
2023/05/16 08:25:07;;;;;;;;;;;12.60;99.90;;;;;;5103036;28;19920;-55
2023/05/16 08:27:37;;;;;;;;;;;12.60;99.90;;;;;;5113398;28;19919;-55
2023/05/16 08:30:04;;;;;;;;;;;12.70;99.90;;;;;;5112404;28;19919;-55
2023/05/16 08:32:31;;;;;;;;;;;12.60;99.90;;;;;;5104729;28;19927;-55
2023/05/16 08:34:58;;;;;;;;;;;12.60;99.90;;;;;;5105430;28;20283;-57
2023/05/16 08:37:25;;;;;;;;;;;12.50;99.90;;;;;;5109236;28;19927;-54
2023/05/16 08:39:52;;;;;;;;;;;12.50;99.90;;;;;;5103409;28;19943;-55
2023/05/16 08:42:18;;;;;;;;;;;12.40;99.90;;;;;;5112591;28;19920;-53
2023/05/16 08:44:45;;;;;;;;;;;12.50;99.90;;;;;;5104137;28;19919;-56
2023/05/16 08:47:16;;;;;;;;;;;12.60;99.90;;;;;;5102283;28;19955;-54
2023/05/16 08:49:46;;;;;;;;;;;12.70;99.90;;;;;;5108142;28;19920;-56
2023/05/16 08:52:16;;;;;;;;;;;12.80;99.90;;;;;;5110030;28;19923;-55
2023/05/16 08:54:44;;;;;;;;;;;12.80;99.90;;;;;;5101151;28;19920;-53
2023/05/16 08:57:21;;;;;;;;;;;12.80;99.90;;;;;;5096374;28;20406;-53
2023/05/16 08:59:47;;;;;;;;;;;13.20;99.90;;;;;;5112242;28;19926;-57
2023/05/16 09:02:14;;;;;;;;;;;12.60;99.90;;;;;;5103974;28;19927;-55
2023/05/16 09:04:42;;;;;;;;;;;12.50;99.90;;;;;;5103212;28;20508;-57
2023/05/16 09:07:08;;;;;;;;;;;12.40;99.90;;;;;;5111684;28;19961;-53
2023/05/16 09:09:35;;;;;;;;;;;12.40;99.90;;;;;;5099263;28;19927;-57
2023/05/16 09:12:02;;;;;;;;;;;12.30;99.90;;;;;;5100224;28;19927;-54
2023/05/16 09:14:29;;;;;;;;;;;12.30;99.90;;;;;;5104376;28;19919;-55
2023/05/16 09:17:06;;;;;;;;;;;12.30;99.90;;;;;;5094890;28;19943;-57
2023/05/16 09:19:39;;;;;;;;;;;12.20;99.90;;;;;;5100829;28;20016;-55
2023/05/16 09:22:07;;;;;;;;;;;12.20;99.90;;;;;;5108533;28;19920;-55
2023/05/16 09:24:44;;;;;;;;;;;12.10;99.90;;;;;;5104937;28;19923;-54
2023/05/16 09:27:12;;;;;;;;;;;12.10;99.90;;;;;;5111034;28;19924;-56
2023/05/16 09:29:42;;;;;;;;;;;12.00;99.90;;;;;;5100689;28;19927;-53
2023/05/16 09:32:13;;;;;;;;;;;11.90;99.90;;;;;;5092764;28;19981;-53
2023/05/16 09:34:44;;;;;;;;;;;11.90;99.90;;;;;;5103173;28;19927;-54
2023/05/16 09:37:11;;;;;;;;;;;11.90;99.90;;;;;;5102264;28;19994;-56
2023/05/16 09:39:40;;;;;;;;;;;12.00;99.90;;;;;;5105448;28;19919;-56
2023/05/16 09:42:11;;;;;;;;;;;12.00;99.90;;;;;;5103400;28;19931;-55
2023/05/16 09:44:38;;;;;;;;;;;12.10;99.90;;;;;;5106680;28;19977;-54
2023/05/16 09:47:05;;;;;;;;;;;12.20;99.90;;;;;;5100903;28;19920;-55
2023/05/16 09:49:32;;;;;;;;;;;12.20;99.90;;;;;;5112357;28;19943;-54
2023/05/16 09:52:00;;;;;;;;;;;12.30;99.90;;;;;;5103514;28;19923;-54
2023/05/16 09:54:31;;;;;;;;;;;12.20;99.90;;;;;;5108306;28;19927;-54
2023/05/16 09:56:59;;;;;;;;;;;12.20;99.90;;;;;;5094644;28;19923;-55
2023/05/16 09:59:29;;;;;;;;;;;12.20;99.90;;;;;;5104645;28;19926;-54
2023/05/16 10:01:56;;;;;;;;;;;12.10;99.90;;;;;;5112139;28;19926;-55
2023/05/16 10:04:23;;;;;;;;;;;12.00;99.90;;;;;;5103003;28;19965;-57
2023/05/16 10:06:51;;;;;;;;;;;11.90;99.90;;;;;;5106951;28;19923;-54
2023/05/16 10:09:18;;;;;;;;;;;11.90;99.90;;;;;;5111254;28;20363;-56
2023/05/16 10:11:45;;;;;;;;;;;11.90;99.90;;;;;;5105206;28;19931;-54
2023/05/16 10:14:12;;;;;;;;;;;11.90;99.90;;;;;;5107833;28;19919;-54
2023/05/16 10:16:41;;;;;;;;;;;11.90;99.90;;;;;;5103323;28;19923;-55
2023/05/16 10:19:08;;;;;;;;;;;11.90;99.90;;;;;;5110734;28;19920;-57
2023/05/16 10:21:36;;;;;;;;;;;11.90;99.90;;;;;;5104512;28;19961;-55
2023/05/16 10:24:06;;;;;;;;;;;12.50;99.90;;;;;;5103459;28;19926;-55
2023/05/16 10:26:32;;;;;;;;;;;11.70;99.90;;;;;;5110893;28;19920;-57
2023/05/16 10:29:00;;;;;;;;;;;11.70;99.90;;;;;;5103656;28;19979;-53
2023/05/16 10:31:27;;;;;;;;;;;11.70;99.90;;;;;;5099460;28;20287;-54
2023/05/16 10:33:55;;;;;;;;;;;11.60;99.90;;;;;;5098926;28;20018;-54
2023/05/16 10:36:22;;;;;;;;;;;11.60;99.90;;;;;;5091065;28;19927;-54
2023/05/16 10:38:50;;;;;;;;;;;11.60;99.90;;;;;;5097836;28;20357;-56
2023/05/16 10:41:17;;;;;;;;;;;11.60;99.90;;;;;;5101726;28;19928;-57
2023/05/16 10:43:54;;;;;;;;;;;11.70;99.90;;;;;;5111179;28;19923;-56
2023/05/16 10:46:21;;;;;;;;;;;11.90;99.90;;;;;;5101989;28;20333;-56
2023/05/16 10:48:48;;;;;;;;;;;12.00;99.90;;;;;;5102002;28;19948;-56
2023/05/16 10:51:20;;;;;;;;;;;12.20;99.90;;;;;;5101830;28;19920;-55
2023/05/16 10:53:50;;;;;;;;;;;12.40;99.90;;;;;;5109038;28;19924;-53
2023/05/16 10:56:24;;;;;;;;;;;12.50;99.90;;;;;;5103139;28;19923;-56
2023/05/16 10:58:52;;;;;;;;;;;12.60;99.90;;;;;;5095171;28;19926;-57
2023/05/16 11:01:23;;;;;;;;;;;12.70;99.90;;;;;;5105196;28;19920;-56
2023/05/16 11:03:56;;;;;;;;;;;12.80;99.90;;;;;;5108405;28;19920;-55
2023/05/16 11:06:33;;;;;;;;;;;12.80;99.90;;;;;;5114772;28;20051;-58
2023/05/16 11:09:04;;;;;;;;;;;12.80;99.90;;;;;;5088769;28;19920;-56
2023/05/16 11:11:38;;;;;;;;;;;12.80;99.90;;;;;;5114520;28;19930;-55
2023/05/16 11:14:07;;;;;;;;;;;12.80;99.90;;;;;;5105598;28;19924;-55
2023/05/16 11:16:34;;;;;;;;;;;12.80;99.90;;;;;;5106782;28;19920;-57
2023/05/16 11:19:07;;;;;;;;;;;12.70;99.90;;;;;;5106674;28;19927;-56
2023/05/16 11:22:16;;;;;;;;;;;12.70;99.90;;;;;;5106801;28;19923;-53
2023/05/16 11:24:49;;;;;;;;;;;12.70;99.90;;;;;;5032101;28;19921;-56
2023/05/16 11:27:21;;;;;;;;;;;12.60;99.90;;;;;;5031742;28;19928;-54
2023/05/16 11:29:48;;;;;;;;;;;12.60;99.90;;;;;;5079056;28;19924;-56
2023/05/16 11:32:18;;;;;;;;;;;12.50;99.90;;;;;;5105981;28;20344;-57
2023/05/16 11:34:45;;;;;;;;;;;12.50;99.90;;;;;;5105719;28;19919;-56
2023/05/16 11:37:15;;;;;;;;;;;12.30;99.90;;;;;;5106073;28;19923;-56
2023/05/16 11:39:42;;;;;;;;;;;12.20;99.90;;;;;;5113793;28;20367;-54
2023/05/16 11:42:09;;;;;;;;;;;12.10;99.90;;;;;;5105652;28;19920;-57
2023/05/16 11:44:36;;;;;;;;;;;12.00;99.90;;;;;;5108724;28;19923;-56
2023/05/16 11:47:04;;;;;;;;;;;12.10;99.90;;;;;;5114799;28;19920;-54
2023/05/16 11:49:31;;;;;;;;;;;11.90;99.90;;;;;;5109671;28;20014;-56
2023/05/16 11:51:57;;;;;;;;;;;11.90;99.90;;;;;;5102516;28;19928;-55
2023/05/16 11:54:24;;;;;;;;;;;11.90;99.90;;;;;;5108432;28;20010;-56
2023/05/16 11:56:51;;;;;;;;;;;11.80;99.90;;;;;;5108070;28;19951;-55
2023/05/16 11:59:18;;;;;;;;;;;11.80;99.90;;;;;;5111944;28;19924;-58
2023/05/16 12:01:47;;;;;;;;;;;11.70;99.90;;;;;;5108518;28;19920;-56
2023/05/16 12:04:15;;;;;;;;;;;11.70;99.90;;;;;;5093353;28;19924;-57
2023/05/16 12:06:46;;;;;;;;;;;11.60;99.90;;;;;;5099190;28;20276;-58
2023/05/16 12:09:13;;;;;;;;;;;11.60;99.90;;;;;;5104842;28;19972;-58
2023/05/16 12:11:44;;;;;;;;;;;11.50;99.90;;;;;;5101652;28;19927;-58
2023/05/16 12:14:11;;;;;;;;;;;11.50;99.90;;;;;;5105063;28;19920;-57
2023/05/16 12:16:40;;;;;;;;;;;11.50;99.90;;;;;;5109907;28;19924;-57
2023/05/16 12:19:08;;;;;;;;;;;11.60;99.90;;;;;;5105625;28;19973;-55
2023/05/16 12:21:35;;;;;;;;;;;11.80;99.90;;;;;;5110003;28;19927;-57
2023/05/16 12:24:01;;;;;;;;;;;12.10;99.90;;;;;;5100681;28;19920;-57
2023/05/16 12:26:32;;;;;;;;;;;12.50;99.90;;;;;;5104763;28;20240;-56
2023/05/16 12:29:03;;;;;;;;;;;12.70;99.90;;;;;;5113886;28;19920;-57
2023/05/16 12:31:34;;;;;;;;;;;12.90;99.90;;;;;;5101717;28;19931;-57
2023/05/16 12:34:01;;;;;;;;;;;13.10;99.90;;;;;;5101682;28;19920;-56
2023/05/16 12:36:30;;;;;;;;;;;13.00;99.90;;;;;;5099119;28;19924;-58
2023/05/16 12:39:02;;;;;;;;;;;12.90;99.90;;;;;;5100120;28;19920;-56
2023/05/16 12:41:30;;;;;;;;;;;12.70;99.90;;;;;;5104319;28;19927;-57
2023/05/16 12:44:09;;;;;;;;;;;12.50;99.90;;;;;;5112292;28;19927;-55
2023/05/16 12:46:39;;;;;;;;;;;12.40;99.90;;;;;;5113586;28;19919;-57
2023/05/16 12:49:07;;;;;;;;;;;12.40;99.90;;;;;;5108933;28;19920;-55
2023/05/16 12:51:33;;;;;;;;;;;12.40;99.90;;;;;;5109671;28;19927;-55
2023/05/16 12:54:08;;;;;;;;;;;12.40;99.90;;;;;;5100161;28;19950;-55
2023/05/16 12:56:39;;;;;;;;;;;12.50;99.90;;;;;;5100632;28;19926;-57
2023/05/16 12:59:07;;;;;;;;;;;12.60;99.90;;;;;;5113372;28;19923;-56
2023/05/16 13:01:34;;;;;;;;;;;12.80;99.90;;;;;;5100674;28;19924;-53
2023/05/16 13:04:01;;;;;;;;;;;12.90;99.90;;;;;;5101079;28;19927;-55
2023/05/16 13:06:28;;;;;;;;;;;13.00;99.90;;;;;;5110712;28;19930;-57
2023/05/16 13:09:11;;;;;;;;;;;13.30;99.90;;;;;;5112916;28;20433;-57
2023/05/16 13:11:39;;;;;;;;;;;13.50;99.90;;;;;;5112514;28;19920;-58
2023/05/16 13:14:05;;;;;;;;;;;13.60;99.90;;;;;;5104651;28;19920;-56
2023/05/16 13:16:32;;;;;;;;;;;13.80;99.90;;;;;;5098579;28;20383;-57
2023/05/16 13:19:00;;;;;;;;;;;13.90;99.90;;;;;;5104214;28;19949;-57
2023/05/16 13:21:30;;;;;;;;;;;14.00;99.90;;;;;;5112225;28;19923;-56
2023/05/16 13:23:57;;;;;;;;;;;14.10;99.90;;;;;;5111656;28;19920;-57
2023/05/16 13:26:25;;;;;;;;;;;14.20;99.90;;;;;;5103590;28;20383;-57
2023/05/16 13:28:53;;;;;;;;;;;14.40;99.90;;;;;;5094171;28;19942;-53
2023/05/16 13:31:21;;;;;;;;;;;14.30;99.90;;;;;;5092962;28;19943;-56
2023/05/16 13:33:48;;;;;;;;;;;14.20;99.90;;;;;;5107239;28;19923;-57
2023/05/16 13:36:14;;;;;;;;;;;13.90;99.90;;;;;;5105299;28;19969;-56
2023/05/16 13:38:41;;;;;;;;;;;13.80;99.90;;;;;;5112421;28;20379;-55
2023/05/16 13:41:08;;;;;;;;;;;13.70;99.90;;;;;;5111286;28;19923;-56
2023/05/16 13:43:34;;;;;;;;;;;13.60;99.90;;;;;;5103732;28;19920;-58
2023/05/16 13:46:01;;;;;;;;;;;13.60;99.90;;;;;;5111284;28;19969;-56
2023/05/16 13:48:28;;;;;;;;;;;13.50;99.90;;;;;;5103640;28;19951;-56
2023/05/16 13:50:55;;;;;;;;;;;13.40;99.90;;;;;;5093655;28;19920;-56
2023/05/16 13:53:22;;;;;;;;;;;13.30;99.90;;;;;;5092433;28;19927;-56
2023/05/16 13:55:48;;;;;;;;;;;13.30;99.90;;;;;;5111632;28;20407;-54
2023/05/16 13:58:15;;;;;;;;;;;13.30;99.90;;;;;;5106623;28;19923;-54
2023/05/16 14:00:42;;;;;;;;;;;13.40;99.90;;;;;;5111914;28;19920;-54
2023/05/16 14:03:11;;;;;;;;;;;13.30;99.90;;;;;;5103424;28;19927;-57
2023/05/16 14:05:38;;;;;;;;;;;13.50;99.90;;;;;;5099416;28;19926;-54
2023/05/16 14:08:05;;;;;;;;;;;13.60;99.90;;;;;;5091769;28;19924;-53
2023/05/16 14:10:32;;;;;;;;;;;13.70;99.90;;;;;;5098950;28;19924;-55
2023/05/16 14:12:59;;;;;;;;;;;13.70;99.90;;;;;;5099594;28;20287;-57
2023/05/16 14:15:25;;;;;;;;;;;13.70;99.90;;;;;;5109950;28;19926;-55
2023/05/16 14:17:53;;;;;;;;;;;13.70;99.90;;;;;;5102795;28;19920;-58
2023/05/16 14:20:19;;;;;;;;;;;13.80;99.90;;;;;;5102563;28;19988;-54
2023/05/16 14:22:46;;;;;;;;;;;13.70;99.90;;;;;;5099230;28;20122;-54